createdAt,value
2022-10-08T00:00:51.688Z,11.13
2022-10-08T00:01:51.599Z,11.12
2022-10-08T00:02:51.563Z,11.09
2022-10-08T00:03:51.665Z,11.04
2022-10-08T00:04:51.529Z,10.95
2022-10-08T00:05:51.529Z,10.94
2022-10-08T00:06:51.513Z,10.91
2022-10-08T00:07:51.500Z,10.93
2022-10-08T00:08:51.514Z,10.94
2022-10-08T00:09:51.477Z,10.95
2022-10-08T00:10:51.482Z,10.93
2022-10-08T00:11:51.473Z,10.94
2022-10-08T00:12:51.444Z,10.95
2022-10-08T00:13:51.482Z,10.95
2022-10-08T00:14:51.436Z,10.93
2022-10-08T00:15:51.485Z,10.91
2022-10-08T00:16:51.439Z,10.86
2022-10-08T00:17:51.388Z,10.90
2022-10-08T00:18:51.422Z,10.85
2022-10-08T00:19:51.383Z,10.83
2022-10-08T00:20:51.372Z,10.86
2022-10-08T00:21:51.358Z,10.85
2022-10-08T00:22:51.346Z,10.85
2022-10-08T00:23:51.324Z,10.90
2022-10-08T00:24:51.338Z,10.90
2022-10-08T00:25:51.298Z,10.93
2022-10-08T00:26:51.310Z,10.91
2022-10-08T00:27:51.289Z,10.91
2022-10-08T00:28:51.276Z,10.91
2022-10-08T00:29:51.283Z,10.91
2022-10-08T00:30:51.267Z,10.95
2022-10-08T00:31:51.320Z,10.95
2022-10-08T00:32:51.332Z,10.93
2022-10-08T00:33:51.214Z,10.93
2022-10-08T00:34:51.245Z,10.86
2022-10-08T00:35:51.204Z,10.85
2022-10-08T00:36:51.194Z,10.85
2022-10-08T00:37:51.179Z,10.80
2022-10-08T00:38:51.237Z,10.78
2022-10-08T00:39:51.153Z,10.73
2022-10-08T00:40:52.033Z,10.75
2022-10-08T00:41:51.132Z,10.76
2022-10-08T00:42:51.162Z,10.80
2022-10-08T00:43:51.116Z,10.83
2022-10-08T00:44:51.109Z,10.83
2022-10-08T00:45:51.162Z,10.87
2022-10-08T00:46:51.125Z,10.87
2022-10-08T00:47:51.096Z,10.94
2022-10-08T00:48:51.082Z,11.00
2022-10-08T00:49:51.062Z,11.04
2022-10-08T00:50:51.050Z,11.12
2022-10-08T00:51:51.047Z,11.20
2022-10-08T00:52:51.024Z,11.23
2022-10-08T00:53:51.026Z,11.27
2022-10-08T00:54:51.004Z,11.25
2022-10-08T00:55:50.989Z,11.28
2022-10-08T00:56:50.987Z,11.28
2022-10-08T00:57:50.960Z,11.28
2022-10-08T00:58:51.138Z,11.27
2022-10-08T00:59:50.936Z,11.27
2022-10-08T01:00:51.059Z,11.25
2022-10-08T01:01:50.981Z,11.23
2022-10-08T01:02:50.925Z,11.22
2022-10-08T01:03:50.916Z,11.27
2022-10-08T01:04:50.946Z,11.23
2022-10-08T01:05:50.900Z,11.22
2022-10-08T01:06:50.909Z,11.23
2022-10-08T01:07:50.864Z,11.16
2022-10-08T01:08:50.867Z,11.18
2022-10-08T01:09:50.828Z,11.23
2022-10-08T01:10:50.907Z,11.22
2022-10-08T01:11:50.863Z,11.20
2022-10-08T01:12:50.823Z,11.22
2022-10-08T01:13:50.798Z,11.22
2022-10-08T01:14:51.245Z,11.25
2022-10-08T01:15:50.775Z,11.28
2022-10-08T01:16:50.768Z,11.31
2022-10-08T01:17:50.759Z,11.34
2022-10-08T01:18:51.023Z,11.34
2022-10-08T01:19:51.005Z,11.36
2022-10-08T01:20:50.738Z,11.36
2022-10-08T01:21:50.688Z,11.33
2022-10-08T01:22:50.681Z,11.33
2022-10-08T01:23:50.688Z,11.33
2022-10-08T01:24:50.679Z,11.36
2022-10-08T01:25:50.654Z,11.38
2022-10-08T01:26:50.676Z,11.40
2022-10-08T01:27:50.640Z,11.41
2022-10-08T01:28:50.638Z,11.40
2022-10-08T01:29:50.616Z,11.45
2022-10-08T01:30:50.622Z,11.49
2022-10-08T01:31:50.715Z,11.51
2022-10-08T01:32:50.594Z,11.51
2022-10-08T01:33:50.602Z,11.54
2022-10-08T01:34:50.583Z,11.52
2022-10-08T01:35:50.552Z,11.54
2022-10-08T01:36:50.536Z,11.51
2022-10-08T01:37:50.529Z,11.48
2022-10-08T01:38:50.543Z,11.49
2022-10-08T01:39:50.524Z,11.52
2022-10-08T01:40:50.517Z,11.54
2022-10-08T01:41:50.493Z,11.54
2022-10-08T01:42:50.498Z,11.54
2022-10-08T01:43:50.470Z,11.55
2022-10-08T01:44:50.471Z,11.59
2022-10-08T01:45:50.484Z,11.59
2022-10-08T01:46:50.467Z,11.62
2022-10-08T01:47:50.423Z,11.64
2022-10-08T01:48:50.441Z,11.67
2022-10-08T01:49:50.394Z,11.69
2022-10-08T01:50:50.403Z,11.73
2022-10-08T01:51:50.385Z,11.77
2022-10-08T01:52:50.471Z,11.79
2022-10-08T01:53:50.384Z,11.79
2022-10-08T01:54:50.347Z,11.79
2022-10-08T01:55:50.358Z,11.77
2022-10-08T01:56:50.337Z,11.80
2022-10-08T01:57:50.313Z,11.79
2022-10-08T01:58:50.314Z,11.82
2022-10-08T01:59:50.290Z,11.82
2022-10-08T02:00:50.368Z,11.84
2022-10-08T02:01:50.482Z,11.87
2022-10-08T02:02:50.262Z,11.88
2022-10-08T02:03:50.270Z,11.89
2022-10-08T02:04:50.250Z,11.91
2022-10-08T02:05:50.255Z,11.95
2022-10-08T02:06:50.300Z,12.03
2022-10-08T02:07:50.204Z,12.04
2022-10-08T02:08:50.235Z,12.07
2022-10-08T02:09:50.171Z,12.13
2022-10-08T02:10:50.198Z,12.15
2022-10-08T02:11:50.185Z,12.21
2022-10-08T02:12:50.412Z,12.21
2022-10-08T02:13:50.147Z,12.25
2022-10-08T02:14:50.156Z,12.28
2022-10-08T02:15:50.120Z,12.26
2022-10-08T02:16:50.142Z,12.28
2022-10-08T02:17:50.099Z,12.28
2022-10-08T02:18:50.101Z,12.26
2022-10-08T02:19:50.106Z,12.26
2022-10-08T02:20:50.080Z,12.28
2022-10-08T02:21:50.059Z,12.29
2022-10-08T02:22:50.050Z,12.29
2022-10-08T02:23:50.031Z,12.30
2022-10-08T02:24:50.036Z,12.32
2022-10-08T02:25:50.020Z,12.29
2022-10-08T02:26:50.010Z,12.33
2022-10-08T02:27:50.005Z,12.30
2022-10-08T02:28:50.044Z,12.30
2022-10-08T02:29:49.970Z,12.30
2022-10-08T02:30:49.967Z,12.30
2022-10-08T02:31:50.031Z,12.30
2022-10-08T02:32:49.948Z,12.32
2022-10-08T02:33:49.926Z,12.32
2022-10-08T02:34:49.923Z,12.30
2022-10-08T02:35:49.906Z,12.29
2022-10-08T02:36:49.891Z,12.25
2022-10-08T02:37:49.898Z,12.26
2022-10-08T02:38:49.960Z,12.26
2022-10-08T02:39:49.879Z,12.22
2022-10-08T02:40:49.863Z,12.21
2022-10-08T02:41:49.836Z,12.21
2022-10-08T02:42:50.087Z,12.18
2022-10-08T02:43:49.841Z,12.17
2022-10-08T02:44:49.807Z,12.15
2022-10-08T02:45:49.888Z,12.15
2022-10-08T02:46:49.827Z,12.17
2022-10-08T02:47:49.770Z,12.15
2022-10-08T02:48:49.768Z,12.17
2022-10-08T02:49:49.735Z,12.14
2022-10-08T02:50:49.760Z,12.15
2022-10-08T02:51:49.737Z,12.14
2022-10-08T02:52:50.042Z,12.14
2022-10-08T02:53:49.705Z,12.15
2022-10-08T02:54:49.701Z,12.14
2022-10-08T02:55:49.717Z,12.13
2022-10-08T02:56:49.690Z,12.11
2022-10-08T02:57:49.657Z,12.08
2022-10-08T02:58:49.935Z,12.05
2022-10-08T02:59:49.679Z,12.00
2022-10-08T03:00:49.705Z,11.96
2022-10-08T03:01:49.647Z,11.89
2022-10-08T03:02:50.084Z,11.85
2022-10-08T03:03:49.617Z,11.80
2022-10-08T03:04:49.615Z,11.76
2022-10-08T03:05:49.589Z,11.73
2022-10-08T03:06:49.582Z,11.70
2022-10-08T03:07:49.593Z,11.67
2022-10-08T03:08:49.547Z,11.66
2022-10-08T03:09:49.556Z,11.62
2022-10-08T03:10:49.546Z,11.61
2022-10-08T03:11:49.539Z,11.61
2022-10-08T03:12:53.038Z,11.59
2022-10-08T03:13:49.505Z,11.59
2022-10-08T03:14:49.483Z,11.61
2022-10-08T03:15:49.505Z,11.61
2022-10-08T03:16:49.505Z,11.61
2022-10-08T03:17:49.452Z,11.61
2022-10-08T03:18:49.466Z,11.59
2022-10-08T03:19:49.471Z,11.58
2022-10-08T03:20:49.459Z,11.58
2022-10-08T03:21:49.414Z,11.56
2022-10-08T03:22:49.803Z,11.58
2022-10-08T03:23:49.388Z,11.55
2022-10-08T03:24:51.769Z,11.56
2022-10-08T03:25:49.397Z,11.58
2022-10-08T03:26:49.357Z,11.56
2022-10-08T03:27:49.357Z,11.56
2022-10-08T03:28:49.319Z,11.55
2022-10-08T03:29:49.334Z,11.56
2022-10-08T03:30:49.330Z,11.54
2022-10-08T03:31:49.322Z,11.55
2022-10-08T03:32:49.708Z,11.54
2022-10-08T03:33:49.321Z,11.55
2022-10-08T03:34:49.266Z,11.56
2022-10-08T03:35:49.265Z,11.54
2022-10-08T03:36:49.252Z,11.54
2022-10-08T03:37:49.257Z,11.49
2022-10-08T03:38:49.226Z,11.48
2022-10-08T03:39:49.211Z,11.45
2022-10-08T03:40:49.199Z,11.43
2022-10-08T03:41:49.188Z,11.40
2022-10-08T03:42:49.581Z,11.37
2022-10-08T03:43:49.195Z,11.36
2022-10-08T03:44:49.158Z,11.33
2022-10-08T03:45:49.201Z,11.31
2022-10-08T03:46:49.141Z,11.25
2022-10-08T03:47:49.137Z,11.23
2022-10-08T03:48:49.166Z,11.22
2022-10-08T03:49:49.111Z,11.20
2022-10-08T03:50:49.100Z,11.20
2022-10-08T03:51:49.093Z,11.19
2022-10-08T03:52:49.428Z,11.19
2022-10-08T03:53:49.073Z,11.15
2022-10-08T03:54:49.060Z,11.16
2022-10-08T03:55:49.048Z,11.16
2022-10-08T03:56:49.055Z,11.15
2022-10-08T03:57:49.019Z,11.15
2022-10-08T03:58:49.049Z,11.16
2022-10-08T03:59:49.027Z,11.15
2022-10-08T04:00:48.981Z,11.15
2022-10-08T04:01:49.089Z,11.16
2022-10-08T04:02:49.375Z,11.15
2022-10-08T04:03:48.976Z,11.15
2022-10-08T04:04:48.949Z,11.13
2022-10-08T04:05:48.934Z,11.12
2022-10-08T04:06:48.922Z,11.12
2022-10-08T04:07:48.928Z,11.11
2022-10-08T04:08:48.893Z,11.09
2022-10-08T04:09:48.911Z,11.08
2022-10-08T04:10:48.874Z,11.05
2022-10-08T04:11:48.891Z,11.05
2022-10-08T04:12:49.167Z,11.08
2022-10-08T04:13:48.885Z,11.04
2022-10-08T04:14:48.866Z,11.05
2022-10-08T04:15:48.899Z,11.04
2022-10-08T04:16:48.851Z,11.04
2022-10-08T04:17:48.816Z,11.03
2022-10-08T04:18:48.813Z,11.03
2022-10-08T04:19:48.798Z,11.01
2022-10-08T04:20:48.784Z,10.98
2022-10-08T04:21:48.775Z,11.01
2022-10-08T04:22:49.257Z,11.00
2022-10-08T04:23:48.775Z,11.01
2022-10-08T04:24:48.723Z,10.98
2022-10-08T04:25:48.718Z,11.00
2022-10-08T04:26:48.715Z,11.01
2022-10-08T04:27:48.703Z,11.00
2022-10-08T04:28:48.739Z,11.00
2022-10-08T04:29:48.683Z,11.01
2022-10-08T04:30:48.733Z,11.00
2022-10-08T04:31:48.670Z,10.98
2022-10-08T04:32:49.215Z,10.95
2022-10-08T04:33:48.666Z,10.95
2022-10-08T04:34:48.618Z,10.97
2022-10-08T04:35:48.614Z,10.95
2022-10-08T04:36:48.586Z,10.97
2022-10-08T04:37:48.598Z,10.95
2022-10-08T04:38:48.585Z,10.98
2022-10-08T04:39:48.584Z,10.97
2022-10-08T04:40:48.549Z,10.97
2022-10-08T04:41:48.546Z,10.95
2022-10-08T04:42:48.855Z,10.95
2022-10-08T04:43:48.553Z,10.95
2022-10-08T04:44:48.500Z,10.95
2022-10-08T04:45:48.502Z,10.95
2022-10-08T04:46:48.576Z,10.97
2022-10-08T04:47:48.495Z,10.95
2022-10-08T04:48:48.461Z,10.95
2022-10-08T04:49:48.474Z,10.95
2022-10-08T04:50:48.574Z,10.97
2022-10-08T04:51:48.457Z,10.95
2022-10-08T04:52:48.889Z,10.95
2022-10-08T04:53:48.440Z,10.95
2022-10-08T04:54:48.403Z,10.93
2022-10-08T04:55:48.397Z,10.97
2022-10-08T04:56:48.385Z,10.94
2022-10-08T04:57:48.370Z,10.97
2022-10-08T04:58:48.365Z,10.95
2022-10-08T05:00:06.151Z,10.97
2022-10-08T05:00:48.354Z,10.95
2022-10-08T05:01:48.463Z,10.98
2022-10-08T05:02:48.689Z,10.97
2022-10-08T05:03:48.315Z,10.97
2022-10-08T05:04:48.328Z,10.98
2022-10-08T05:05:48.331Z,11.01
2022-10-08T05:06:48.301Z,11.01
2022-10-08T05:07:48.267Z,11.01
2022-10-08T05:08:48.243Z,11.01
2022-10-08T05:09:48.260Z,11.01
2022-10-08T05:10:48.229Z,11.04
2022-10-08T05:11:48.235Z,11.04
2022-10-08T05:12:48.791Z,11.04
2022-10-08T05:13:48.248Z,11.08
2022-10-08T05:14:48.209Z,11.08
2022-10-08T05:15:48.220Z,11.05
2022-10-08T05:16:48.166Z,11.08
2022-10-08T05:17:48.171Z,11.08
2022-10-08T05:18:48.144Z,11.11
2022-10-08T05:19:48.144Z,11.11
2022-10-08T05:20:48.095Z,11.11
2022-10-08T05:21:48.116Z,11.11
2022-10-08T05:22:48.402Z,11.15
2022-10-08T05:23:48.111Z,11.11
2022-10-08T05:24:48.044Z,11.12
2022-10-08T05:25:48.035Z,11.13
2022-10-08T05:27:03.444Z,11.13
2022-10-08T05:27:48.175Z,11.15
2022-10-08T05:28:48.053Z,11.15
2022-10-08T05:29:48.034Z,11.15
2022-10-08T05:30:48.030Z,11.15
2022-10-08T05:31:47.981Z,11.16
2022-10-08T05:32:48.479Z,11.18
2022-10-08T05:33:47.960Z,11.15
2022-10-08T05:34:47.926Z,11.18
2022-10-08T05:35:47.934Z,11.16
2022-10-08T05:36:47.920Z,11.19
2022-10-08T05:37:47.930Z,11.18
2022-10-08T05:38:47.908Z,11.20
2022-10-08T05:39:47.913Z,11.22
2022-10-08T05:40:47.939Z,11.22
2022-10-08T05:41:47.841Z,11.22
2022-10-08T05:42:48.146Z,11.23
2022-10-08T05:43:47.826Z,11.23
2022-10-08T05:44:47.820Z,11.25
2022-10-08T05:45:47.836Z,11.25
2022-10-08T05:46:48.233Z,11.25
2022-10-08T05:47:47.794Z,11.28
2022-10-08T05:48:47.772Z,11.27
2022-10-08T05:49:47.803Z,11.25
2022-10-08T05:50:47.762Z,11.27
2022-10-08T05:51:47.759Z,11.27
2022-10-08T05:52:48.197Z,11.27
2022-10-08T05:53:47.828Z,11.27
2022-10-08T05:54:47.735Z,11.27
2022-10-08T05:55:47.743Z,11.28
2022-10-08T05:56:47.695Z,11.28
2022-10-08T05:57:48.270Z,11.27
2022-10-08T05:58:48.594Z,11.28
2022-10-08T05:59:48.773Z,11.30
2022-10-08T06:00:47.623Z,11.30
2022-10-08T06:01:47.642Z,11.30
2022-10-08T06:02:47.932Z,11.30
2022-10-08T06:03:47.613Z,11.33
2022-10-08T06:04:47.678Z,11.31
2022-10-08T06:05:47.612Z,11.31
2022-10-08T06:06:47.602Z,11.30
2022-10-08T06:07:47.580Z,11.31
2022-10-08T06:08:48.729Z,11.34
2022-10-08T06:09:47.572Z,11.31
2022-10-08T06:10:47.592Z,11.31
2022-10-08T06:11:47.578Z,11.30
2022-10-08T06:12:47.736Z,11.31
2022-10-08T06:13:47.508Z,11.31
2022-10-08T06:14:47.488Z,11.31
2022-10-08T06:15:47.614Z,11.34
2022-10-08T06:16:47.490Z,11.34
2022-10-08T06:17:47.453Z,11.34
2022-10-08T06:18:47.449Z,11.37
2022-10-08T06:19:47.450Z,11.36
2022-10-08T06:20:47.440Z,11.37
2022-10-08T06:21:47.432Z,11.36
2022-10-08T06:22:47.663Z,11.36
2022-10-08T06:23:47.388Z,11.37
2022-10-08T06:24:47.378Z,11.38
2022-10-08T06:25:47.387Z,11.38
2022-10-08T06:26:47.539Z,11.37
2022-10-08T06:27:47.369Z,11.38
2022-10-08T06:28:47.434Z,11.38
2022-10-08T06:29:48.207Z,11.38
2022-10-08T06:30:47.342Z,11.40
2022-10-08T06:31:47.431Z,11.41
2022-10-08T06:32:47.601Z,11.41
2022-10-08T06:33:47.873Z,11.45
2022-10-08T06:34:47.273Z,11.45
2022-10-08T06:35:47.284Z,11.46
2022-10-08T06:36:47.311Z,11.49
2022-10-08T06:37:47.246Z,11.49
2022-10-08T06:38:47.245Z,11.49
2022-10-08T06:39:48.541Z,11.52
2022-10-08T06:40:47.221Z,11.52
2022-10-08T06:41:47.228Z,11.52
2022-10-08T06:42:47.426Z,11.54
2022-10-08T06:43:47.227Z,11.55
2022-10-08T06:44:47.192Z,11.55
2022-10-08T06:45:47.204Z,11.55
2022-10-08T06:46:47.281Z,11.56
2022-10-08T06:47:47.136Z,11.58
2022-10-08T06:48:47.127Z,11.61
2022-10-08T06:49:47.114Z,11.62
2022-10-08T06:50:47.099Z,11.64
2022-10-08T06:51:47.097Z,11.61
2022-10-08T06:52:47.407Z,11.61
2022-10-08T06:53:47.080Z,11.61
2022-10-08T06:54:47.050Z,11.58
2022-10-08T06:55:47.055Z,11.58
2022-10-08T06:56:47.048Z,11.58
2022-10-08T06:57:47.039Z,11.58
2022-10-08T06:58:47.017Z,11.61
2022-10-08T06:59:47.004Z,11.56
2022-10-08T07:00:47.007Z,11.59
2022-10-08T07:01:47.174Z,11.62
2022-10-08T07:02:47.317Z,11.61
2022-10-08T07:03:46.963Z,11.61
2022-10-08T07:04:46.962Z,11.61
2022-10-08T07:05:46.935Z,11.62
2022-10-08T07:06:46.945Z,11.64
2022-10-08T07:07:46.931Z,11.66
2022-10-08T07:08:46.923Z,11.64
2022-10-08T07:09:46.911Z,11.66
2022-10-08T07:10:46.891Z,11.66
2022-10-08T07:11:46.881Z,11.62
2022-10-08T07:12:47.134Z,11.67
2022-10-08T07:13:46.848Z,11.69
2022-10-08T07:14:46.862Z,11.69
2022-10-08T07:15:46.841Z,11.69
2022-10-08T07:16:46.871Z,11.66
2022-10-08T07:17:46.810Z,11.67
2022-10-08T07:18:46.810Z,11.66
2022-10-08T07:19:46.822Z,11.69
2022-10-08T07:20:46.822Z,11.73
2022-10-08T07:21:46.811Z,11.77
2022-10-08T07:22:46.979Z,11.76
2022-10-08T07:23:47.680Z,11.76
2022-10-08T07:24:46.771Z,11.73
2022-10-08T07:25:46.756Z,11.73
2022-10-08T07:26:46.769Z,11.70
2022-10-08T07:27:46.696Z,11.71
2022-10-08T07:28:46.791Z,11.71
2022-10-08T07:29:46.701Z,11.77
2022-10-08T07:30:46.667Z,11.84
2022-10-08T07:31:46.722Z,11.88
2022-10-08T07:32:46.805Z,11.87
2022-10-08T07:33:46.633Z,11.85
2022-10-08T07:34:46.650Z,11.87
2022-10-08T07:35:46.629Z,11.95
2022-10-08T07:36:46.607Z,11.99
2022-10-08T07:37:46.606Z,12.03
2022-10-08T07:38:46.579Z,12.10
2022-10-08T07:39:46.563Z,12.21
2022-10-08T07:40:46.592Z,12.32
2022-10-08T07:41:46.561Z,12.44
2022-10-08T07:42:46.775Z,12.61
2022-10-08T07:43:46.529Z,12.63
2022-10-08T07:44:46.548Z,12.55
2022-10-08T07:45:46.557Z,12.50
2022-10-08T07:46:46.522Z,12.48
2022-10-08T07:47:46.488Z,12.36
2022-10-08T07:48:46.480Z,12.26
2022-10-08T07:49:46.461Z,12.15
2022-10-08T07:50:46.452Z,12.13
2022-10-08T07:51:46.451Z,12.15
2022-10-08T07:52:46.720Z,12.25
2022-10-08T07:53:46.418Z,12.28
2022-10-08T07:54:46.427Z,12.26
2022-10-08T07:55:46.400Z,12.26
2022-10-08T07:56:46.401Z,12.28
2022-10-08T07:57:46.371Z,12.35
2022-10-08T07:58:46.397Z,12.35
2022-10-08T07:59:46.353Z,12.36
2022-10-08T08:00:46.433Z,12.36
2022-10-08T08:01:46.420Z,12.35
2022-10-08T08:02:46.648Z,12.32
2022-10-08T08:03:47.325Z,12.33
2022-10-08T08:04:46.351Z,12.38
2022-10-08T08:05:46.314Z,12.44
2022-10-08T08:06:46.295Z,12.47
2022-10-08T08:07:50.980Z,12.48
2022-10-08T08:08:46.287Z,12.48
2022-10-08T08:09:46.283Z,12.47
2022-10-08T08:10:46.249Z,12.51
2022-10-08T08:11:46.223Z,12.54
2022-10-08T08:12:46.579Z,12.55
2022-10-08T08:13:46.205Z,12.58
2022-10-08T08:14:46.200Z,12.59
2022-10-08T08:15:46.198Z,12.65
2022-10-08T08:16:46.231Z,12.71
2022-10-08T08:17:46.176Z,12.69
2022-10-08T08:18:46.156Z,12.62
2022-10-08T08:19:46.135Z,12.65
2022-10-08T08:20:46.172Z,12.71
2022-10-08T08:21:46.120Z,12.81
2022-10-08T08:22:46.420Z,12.99
2022-10-08T08:23:46.105Z,12.90
2022-10-08T08:24:46.094Z,12.79
2022-10-08T08:25:46.096Z,12.84
2022-10-08T08:26:46.074Z,13.05
2022-10-08T08:27:46.060Z,13.29
2022-10-08T08:28:46.233Z,13.40
2022-10-08T08:29:46.041Z,13.36
2022-10-08T08:30:46.039Z,13.21
2022-10-08T08:31:46.219Z,13.17
2022-10-08T08:32:46.343Z,13.17
2022-10-08T08:33:46.146Z,13.35
2022-10-08T08:34:46.061Z,13.57
2022-10-08T08:35:46.068Z,13.72
2022-10-08T08:36:45.955Z,13.93
2022-10-08T08:37:45.947Z,14.04
2022-10-08T08:38:45.948Z,14.11
2022-10-08T08:39:45.944Z,14.03
2022-10-08T08:40:45.955Z,13.79
2022-10-08T08:41:45.916Z,13.75
2022-10-08T08:42:46.173Z,13.94
2022-10-08T08:43:45.884Z,14.05
2022-10-08T08:44:45.900Z,13.86
2022-10-08T08:45:47.409Z,13.71
2022-10-08T08:46:45.888Z,13.68
2022-10-08T08:47:45.832Z,13.58
2022-10-08T08:48:45.842Z,13.54
2022-10-08T08:49:45.828Z,13.46
2022-10-08T08:50:48.776Z,13.45
2022-10-08T08:51:45.797Z,13.36
2022-10-08T08:52:46.108Z,13.26
2022-10-08T08:53:45.797Z,13.51
2022-10-08T08:54:45.802Z,13.71
2022-10-08T08:55:45.775Z,13.85
2022-10-08T08:56:45.756Z,14.08
2022-10-08T08:57:45.731Z,14.18
2022-10-08T08:58:45.716Z,14.31
2022-10-08T08:59:45.712Z,14.26
2022-10-08T09:00:45.827Z,14.26
2022-10-08T09:01:45.701Z,14.12
2022-10-08T09:02:46.081Z,13.98
2022-10-08T09:03:45.675Z,14.18
2022-10-08T09:04:45.697Z,14.26
2022-10-08T09:05:45.687Z,14.22
2022-10-08T09:06:45.651Z,14.27
2022-10-08T09:07:45.618Z,14.37
2022-10-08T09:08:45.628Z,14.41
2022-10-08T09:09:45.603Z,14.41
2022-10-08T09:10:45.607Z,14.34
2022-10-08T09:11:45.572Z,14.51
2022-10-08T09:12:45.981Z,14.71
2022-10-08T09:13:45.562Z,14.92
2022-10-08T09:14:45.570Z,15.05
2022-10-08T09:15:45.557Z,15.10
2022-10-08T09:16:45.614Z,14.87
2022-10-08T09:17:45.542Z,14.74
2022-10-08T09:18:45.820Z,14.77
2022-10-08T09:19:45.488Z,14.71
2022-10-08T09:20:45.493Z,14.74
2022-10-08T09:21:45.507Z,14.93
2022-10-08T09:22:45.855Z,14.95
2022-10-08T09:23:45.481Z,14.66
2022-10-08T09:24:45.443Z,14.83
2022-10-08T09:25:45.435Z,15.05
2022-10-08T09:26:45.415Z,15.25
2022-10-08T09:27:45.416Z,15.51
2022-10-08T09:28:45.446Z,15.51
2022-10-08T09:29:45.387Z,15.84
2022-10-08T09:30:45.517Z,15.62
2022-10-08T09:31:45.381Z,15.63
2022-10-08T09:32:45.717Z,15.44
2022-10-08T09:33:45.354Z,15.25
2022-10-08T09:34:45.377Z,14.96
2022-10-08T09:35:45.377Z,14.74
2022-10-08T09:36:45.364Z,14.53
2022-10-08T09:37:45.353Z,14.34
2022-10-08T09:38:45.350Z,14.28
2022-10-08T09:39:45.280Z,14.16
2022-10-08T09:40:45.279Z,14.13
2022-10-08T09:41:45.262Z,14.40
2022-10-08T09:42:45.654Z,14.55
2022-10-08T09:43:45.264Z,14.64
2022-10-08T09:44:45.239Z,14.67
2022-10-08T09:45:45.293Z,15.07
2022-10-08T09:46:45.214Z,15.35
2022-10-08T09:47:45.224Z,15.40
2022-10-08T09:48:45.432Z,15.68
2022-10-08T09:49:45.172Z,15.93
2022-10-08T09:50:45.173Z,16.28
2022-10-08T09:51:45.155Z,16.69
2022-10-08T09:52:45.614Z,16.91
2022-10-08T09:53:45.169Z,16.92
2022-10-08T09:54:45.145Z,16.70
2022-10-08T09:55:45.105Z,16.09
2022-10-08T09:56:45.110Z,15.52
2022-10-08T09:57:45.080Z,15.17
2022-10-08T09:58:45.106Z,14.99
2022-10-08T09:59:45.066Z,14.99
2022-10-08T10:00:45.060Z,15.11
2022-10-08T10:01:45.071Z,15.62
2022-10-08T10:02:45.407Z,16.24
2022-10-08T10:03:45.053Z,16.72
2022-10-08T10:04:45.044Z,17.13
2022-10-08T10:05:44.998Z,16.95
2022-10-08T10:06:45.001Z,16.34
2022-10-08T10:07:44.985Z,15.58
2022-10-08T10:08:44.982Z,15.17
2022-10-08T10:09:44.959Z,14.79
2022-10-08T10:10:44.966Z,14.49
2022-10-08T10:11:44.941Z,15.51
2022-10-08T10:12:45.307Z,16.69
2022-10-08T10:13:44.909Z,17.68
2022-10-08T10:14:44.906Z,18.43
2022-10-08T10:15:44.932Z,18.85
2022-10-08T10:16:44.926Z,19.19
2022-10-08T10:17:44.874Z,19.57
2022-10-08T10:18:44.858Z,19.53
2022-10-08T10:19:44.866Z,19.52
2022-10-08T10:20:44.867Z,19.87
2022-10-08T10:21:44.828Z,20.19
2022-10-08T10:22:45.201Z,20.32
2022-10-08T10:23:44.800Z,20.11
2022-10-08T10:24:44.823Z,19.77
2022-10-08T10:25:44.797Z,20.00
2022-10-08T10:26:44.771Z,20.09
2022-10-08T10:27:44.765Z,20.41
2022-10-08T10:28:44.851Z,21.00
2022-10-08T10:29:44.736Z,21.26
2022-10-08T10:30:44.775Z,21.23
2022-10-08T10:31:44.722Z,21.38
2022-10-08T10:32:45.163Z,20.26
2022-10-08T10:33:44.713Z,18.13
2022-10-08T10:34:44.691Z,16.76
2022-10-08T10:35:44.710Z,15.96
2022-10-08T10:36:44.706Z,15.07
2022-10-08T10:37:44.672Z,14.66
2022-10-08T10:38:44.652Z,14.45
2022-10-08T10:39:44.644Z,14.19
2022-10-08T10:40:44.654Z,13.88
2022-10-08T10:41:44.620Z,13.65
2022-10-08T10:42:44.957Z,13.46
2022-10-08T10:43:44.618Z,13.38
2022-10-08T10:44:44.592Z,13.26
2022-10-08T10:45:44.701Z,13.17
2022-10-08T10:46:46.304Z,13.06
2022-10-08T10:47:44.549Z,13.01
2022-10-08T10:48:44.557Z,12.99
2022-10-08T10:49:44.537Z,12.96
2022-10-08T10:50:44.527Z,12.91
2022-10-08T10:51:44.546Z,13.02
2022-10-08T10:52:44.803Z,13.20
2022-10-08T10:53:44.490Z,13.19
2022-10-08T10:54:44.491Z,13.16
2022-10-08T10:55:44.466Z,13.09
2022-10-08T10:56:44.501Z,13.61
2022-10-08T10:57:44.450Z,14.05
2022-10-08T10:58:44.446Z,14.78
2022-10-08T10:59:44.427Z,16.44
2022-10-08T11:00:44.424Z,17.62
2022-10-08T11:01:44.537Z,18.49
2022-10-08T11:02:44.510Z,19.13
2022-10-08T11:03:44.369Z,19.94
2022-10-08T11:04:44.395Z,20.34
2022-10-08T11:05:44.357Z,20.60
2022-10-08T11:06:44.361Z,20.97
2022-10-08T11:07:51.609Z,21.11
2022-10-08T11:08:44.353Z,21.40
2022-10-08T11:09:44.342Z,20.83
2022-10-08T11:10:44.316Z,20.53
2022-10-08T11:11:44.300Z,19.05
2022-10-08T11:12:44.367Z,17.81
2022-10-08T11:13:44.297Z,16.79
2022-10-08T11:14:44.262Z,16.22
2022-10-08T11:15:44.331Z,15.85
2022-10-08T11:16:44.272Z,15.50
2022-10-08T11:17:44.253Z,15.32
2022-10-08T11:18:44.241Z,14.96
2022-10-08T11:19:44.224Z,14.67
2022-10-08T11:20:44.214Z,14.44
2022-10-08T11:21:44.188Z,14.27
2022-10-08T11:22:44.220Z,14.13
2022-10-08T11:23:44.195Z,13.96
2022-10-08T11:24:44.168Z,13.80
2022-10-08T11:26:09.822Z,13.72
2022-10-08T11:26:44.144Z,13.63
2022-10-08T11:27:44.132Z,13.55
2022-10-08T11:28:44.281Z,13.46
2022-10-08T11:29:44.103Z,13.38
2022-10-08T11:30:44.139Z,13.39
2022-10-08T11:31:44.086Z,13.42
2022-10-08T11:32:44.096Z,13.76
2022-10-08T11:33:44.109Z,13.85
2022-10-08T11:34:44.047Z,13.88
2022-10-08T11:35:44.056Z,13.86
2022-10-08T11:36:44.042Z,13.97
2022-10-08T11:37:44.015Z,13.96
2022-10-08T11:38:44.017Z,14.04
2022-10-08T11:39:44.005Z,14.16
2022-10-08T11:40:44.003Z,14.46
2022-10-08T11:41:43.985Z,14.97
2022-10-08T11:42:48.082Z,15.25
2022-10-08T11:43:43.956Z,15.22
2022-10-08T11:44:43.942Z,15.14
2022-10-08T11:45:43.949Z,15.08
2022-10-08T11:46:43.926Z,15.03
2022-10-08T11:47:43.922Z,15.03
2022-10-08T11:48:43.894Z,15.19
2022-10-08T11:49:43.899Z,15.04
2022-10-08T11:50:43.889Z,15.01
2022-10-08T11:51:43.906Z,14.85
2022-10-08T11:52:43.904Z,14.74
2022-10-08T11:53:43.837Z,14.59
2022-10-08T11:54:43.841Z,14.59
2022-10-08T11:55:43.882Z,14.55
2022-10-08T11:56:43.821Z,14.61
2022-10-08T11:58:06.718Z,14.64
2022-10-08T11:58:43.815Z,14.61
2022-10-08T11:59:43.788Z,14.70
2022-10-08T12:00:43.820Z,14.70
2022-10-08T12:01:43.761Z,14.71
2022-10-08T12:02:43.920Z,14.79
2022-10-08T12:03:43.807Z,14.85
2022-10-08T12:04:43.724Z,14.83
2022-10-08T12:05:49.321Z,14.83
2022-10-08T12:06:43.743Z,14.70
2022-10-08T12:07:43.690Z,14.67
2022-10-08T12:08:43.683Z,14.74
2022-10-08T12:09:43.680Z,14.77
2022-10-08T12:10:43.663Z,14.79
2022-10-08T12:11:43.664Z,14.77
2022-10-08T12:12:43.654Z,14.86
2022-10-08T12:13:43.635Z,14.99
2022-10-08T12:14:43.630Z,15.05
2022-10-08T12:15:43.658Z,15.10
2022-10-08T12:16:43.596Z,15.08
2022-10-08T12:17:43.604Z,15.15
2022-10-08T12:18:43.622Z,15.56
2022-10-08T12:19:43.583Z,15.72
2022-10-08T12:20:43.544Z,15.63
2022-10-08T12:21:43.547Z,15.73
2022-10-08T12:22:43.545Z,15.88
2022-10-08T12:23:43.533Z,16.55
2022-10-08T12:24:48.837Z,17.34
2022-10-08T12:25:43.505Z,18.05
2022-10-08T12:26:43.491Z,18.23
2022-10-08T12:27:43.502Z,18.56
2022-10-08T12:28:43.549Z,19.22
2022-10-08T12:29:43.474Z,19.86
2022-10-08T12:30:43.450Z,19.86
2022-10-08T12:31:47.625Z,19.20
2022-10-08T12:32:43.462Z,18.30
2022-10-08T12:33:43.446Z,17.65
2022-10-08T12:34:43.413Z,17.31
2022-10-08T12:35:43.404Z,18.63
2022-10-08T12:36:43.372Z,19.94
2022-10-08T12:37:43.495Z,19.04
2022-10-08T12:38:43.369Z,18.52
2022-10-08T12:39:43.394Z,18.78
2022-10-08T12:40:43.342Z,18.94
2022-10-08T12:41:43.349Z,19.57
2022-10-08T12:42:43.327Z,20.39
2022-10-08T12:43:43.321Z,21.01
2022-10-08T12:44:46.290Z,20.33
2022-10-08T12:45:43.294Z,19.92
2022-10-08T12:46:45.882Z,20.82
2022-10-08T12:47:43.282Z,21.43
2022-10-08T12:48:43.253Z,22.18
2022-10-08T12:49:43.260Z,22.92
2022-10-08T12:50:43.248Z,22.73
2022-10-08T12:51:43.229Z,22.99
2022-10-08T12:52:43.215Z,23.01